Résultats de la compétition "Course de classement - Chambolle-Musigny" du 20-08-2009 organisée par la ligue BO
     
  Télécharger le fichier CSV.  
     
     

 Circuit "Circuit G"

Licence Nom Prénom Temps CN
précédent
Score sur
la course
Différence
16228VERCAUTERENAntoine0:09:5733013200-101
8976PERRINMathieu0:11:1527432830+87
14950SOGNOMartin0:11:2936932773-920
20124MALECOTColin0:11:3422872753+466
12358RINGOTPaul0:12:0231732646-527
11842DERIAZSamson0:12:2428312568-263
16547LAVILLEJulien0:12:2719462558+612
14273POURREJeremi0:12:2827922554-238
20926BAZINThéo0:12:46N/A2494N/A
10910COLINLeo0:12:4919162484+568
19401VIVIER-BOUDRIERThéo0:13:0122852446+161
18213LARGILLÈRENicolas0:13:1924772391-86
17171VUILLEMINPauline0:13:2224612382-79
16555PICAZOMarie0:13:2529122373-539
20315MATHISMartin0:13:3319292350+421
12402KERN-GILLARDEtienne0:13:36N/A2341N/A
18829CRETEJuliette0:13:4313762321+945
11221FENEUILThibauld0:13:4829592307-652
16393FOLLoreline0:13:5328992294-605
19258MAISONNEUVEAntonin0:13:55N/A2288N/A
18080RADISSONJules0:14:0120352272+237
19480GUILBAUDJenny0:14:1822532227-26
11310BOULESTREAUElouan0:14:3127742194-580
13926GODEFROYSimon0:14:3625142181-333
12398BASSETJuliette0:14:4622112156-55
13329TANGUYLeo0:14:55N/A2135N/A
20858DESIGNEBaptiste0:15:07N/A2106N/A
22157BULLIERRomain0:15:21N/A2074N/A
13800DELENNECamillia0:15:2327832070-713
17925DROINSolene0:15:3323612048-313
12709BEAUVIRMaelle0:16:0324861984-502
14751DOURDOU-VARRONMalo0:16:1120721968-104
8552CLOUARDAugustin0:16:1521061960-146
13477DIETSCHJoel0:16:4525381901-637
15417ROCHEJonathan0:16:4722591897-362
18842VUITTONMarie0:17:3020871820-267
12524COLINHugo0:17:4323681797-571
13396BEAUVISAGEQuentin0:17:4620571792-265
20446CHARLESJulian0:17:51N/A1784N/A
16456PICHARDAdrien0:18:1024471753-694
15184BRASSARTAurelien0:18:10N/A1753N/A
16985LANGEARDVictoria0:18:2013151737+422
21214BAUDREYFlorian0:18:36N/A1712N/A
16137ELIASPauline0:18:3828051709-1096
16367DUMEZCorentin0:19:0723791666-713
21123LEDUCBenjamin0:19:26N/A1639N/A
9403BORNARDNicolas0:20:4921941530-664
20183SONNECKHugo0:21:2212471490+243
12059GROSJEANA-Marie0:21:2323091489-820
18089DUDOIGNONChloé0:22:05N/A1442N/A
14887CONIELLaura0:23:1713391368+29
11222FENEUILFergal0:23:1820261367-659
17495ANDRIAMORAZAFIHANTANirina0:23:2019231365-558
15676BERJOANJulia0:24:2313911306-85
15894LUDEWIG-JAMESCarol0:24:2423831305-1078
18968VOLPATOSuzelle0:24:3111901299+109
18165TOULIER--ANCIANTom0:25:4715701235-335
14882LECHANUAlex0:27:18N/A1166N/A
8828EVENLaurie0:29:05N/A1095N/A
12045CHAILLARDDana0:30:1020991056-1043
1417CHAVERNACChantal0:37:101347857-490
325BERBETTBeatrice0:37:151053855-198
1437BOUSQUETHuguette0:40:001617796-821
21301LANNEZVALMaëlikN/AN/A0N/A
11368LAUNEYNoellaN/A19750-1975
21260PIGEONClémenceN/AN/A0N/A

  Indice de confiance du circuit (moyenne des différences entre CN et score sur la course des 3 à 10 premiers) : 121






 Retour